sensor_id;sensor_type;location;lat;lon;timestamp;P1;durP1;ratioP1;P2;durP2;ratioP2
6939;SDS011;3509;48.510;9.076;2022-07-18T00:02:19;4.20;;;3.80;;
6939;SDS011;3509;48.510;9.076;2022-07-18T00:04:45;5.47;;;3.63;;
6939;SDS011;3509;48.510;9.076;2022-07-18T00:07:10;3.95;;;3.55;;
6939;SDS011;3509;48.510;9.076;2022-07-18T00:09:37;4.50;;;3.78;;
6939;SDS011;3509;48.510;9.076;2022-07-18T00:12:04;4.18;;;3.75;;
6939;SDS011;3509;48.510;9.076;2022-07-18T00:14:31;5.00;;;4.00;;
6939;SDS011;3509;48.510;9.076;2022-07-18T00:16:57;3.90;;;3.53;;
6939;SDS011;3509;48.510;9.076;2022-07-18T00:19:24;7.80;;;4.10;;
6939;SDS011;3509;48.510;9.076;2022-07-18T00:21:51;4.53;;;3.85;;
6939;SDS011;3509;48.510;9.076;2022-07-18T00:24:16;4.15;;;3.72;;
6939;SDS011;3509;48.510;9.076;2022-07-18T00:26:42;5.28;;;4.20;;
6939;SDS011;3509;48.510;9.076;2022-07-18T00:29:08;4.65;;;4.18;;
6939;SDS011;3509;48.510;9.076;2022-07-18T00:31:34;5.15;;;3.90;;
6939;SDS011;3509;48.510;9.076;2022-07-18T00:34:00;4.78;;;4.30;;
6939;SDS011;3509;48.510;9.076;2022-07-18T00:36:26;4.72;;;3.80;;
6939;SDS011;3509;48.510;9.076;2022-07-18T00:38:53;4.40;;;4.00;;
6939;SDS011;3509;48.510;9.076;2022-07-18T00:41:19;4.20;;;3.80;;
6939;SDS011;3509;48.510;9.076;2022-07-18T00:43:44;4.50;;;4.10;;
6939;SDS011;3509;48.510;9.076;2022-07-18T00:46:10;4.30;;;3.90;;
6939;SDS011;3509;48.510;9.076;2022-07-18T00:48:39;4.45;;;4.00;;
6939;SDS011;3509;48.510;9.076;2022-07-18T00:51:07;4.38;;;3.97;;
6939;SDS011;3509;48.510;9.076;2022-07-18T00:53:33;4.20;;;3.60;;
6939;SDS011;3509;48.510;9.076;2022-07-18T00:55:59;4.20;;;3.78;;
6939;SDS011;3509;48.510;9.076;2022-07-18T00:58:27;5.78;;;4.10;;
6939;SDS011;3509;48.510;9.076;2022-07-18T01:00:53;4.10;;;3.78;;
6939;SDS011;3509;48.510;9.076;2022-07-18T01:03:38;4.75;;;4.00;;
6939;SDS011;3509;48.510;9.076;2022-07-18T01:06:04;5.32;;;3.83;;
6939;SDS011;3509;48.510;9.076;2022-07-18T01:08:30;6.53;;;4.03;;
6939;SDS011;3509;48.510;9.076;2022-07-18T01:10:55;5.22;;;4.50;;
6939;SDS011;3509;48.510;9.076;2022-07-18T01:13:21;5.05;;;4.55;;
6939;SDS011;3509;48.510;9.076;2022-07-18T01:15:47;4.95;;;4.47;;
6939;SDS011;3509;48.510;9.076;2022-07-18T01:18:12;5.00;;;4.50;;
6939;SDS011;3509;48.510;9.076;2022-07-18T01:20:38;5.43;;;4.28;;
6939;SDS011;3509;48.510;9.076;2022-07-18T01:23:04;5.22;;;4.10;;
6939;SDS011;3509;48.510;9.076;2022-07-18T01:25:30;5.20;;;4.10;;
6939;SDS011;3509;48.510;9.076;2022-07-18T01:27:55;4.60;;;4.20;;
6939;SDS011;3509;48.510;9.076;2022-07-18T01:30:22;4.97;;;4.15;;
6939;SDS011;3509;48.510;9.076;2022-07-18T01:32:58;4.63;;;4.22;;
6939;SDS011;3509;48.510;9.076;2022-07-18T01:35:26;7.78;;;4.57;;
6939;SDS011;3509;48.510;9.076;2022-07-18T01:37:54;4.88;;;4.40;;
6939;SDS011;3509;48.510;9.076;2022-07-18T01:40:21;5.40;;;4.18;;
6939;SDS011;3509;48.510;9.076;2022-07-18T01:42:48;5.07;;;4.60;;
6939;SDS011;3509;48.510;9.076;2022-07-18T01:45:13;6.05;;;4.90;;
6939;SDS011;3509;48.510;9.076;2022-07-18T01:47:40;4.75;;;4.35;;
6939;SDS011;3509;48.510;9.076;2022-07-18T01:50:06;6.88;;;4.80;;
6939;SDS011;3509;48.510;9.076;2022-07-18T01:52:33;5.28;;;4.78;;
6939;SDS011;3509;48.510;9.076;2022-07-18T01:54:59;5.10;;;4.60;;
6939;SDS011;3509;48.510;9.076;2022-07-18T01:57:24;5.65;;;4.68;;
6939;SDS011;3509;48.510;9.076;2022-07-18T01:59:50;5.20;;;4.70;;
6939;SDS011;3509;48.510;9.076;2022-07-18T02:02:16;7.50;;;4.88;;
6939;SDS011;3509;48.510;9.076;2022-07-18T02:04:41;5.50;;;5.00;;
6939;SDS011;3509;48.510;9.076;2022-07-18T02:07:26;5.35;;;4.85;;
6939;SDS011;3509;48.510;9.076;2022-07-18T02:09:53;5.32;;;4.70;;
6939;SDS011;3509;48.510;9.076;2022-07-18T02:12:19;5.20;;;4.70;;
6939;SDS011;3509;48.510;9.076;2022-07-18T02:14:45;4.95;;;4.45;;
6939;SDS011;3509;48.510;9.076;2022-07-18T02:17:11;6.72;;;4.85;;
6939;SDS011;3509;48.510;9.076;2022-07-18T02:19:36;5.55;;;4.80;;
6939;SDS011;3509;48.510;9.076;2022-07-18T02:22:02;5.97;;;4.72;;
6939;SDS011;3509;48.510;9.076;2022-07-18T02:24:28;6.13;;;4.85;;
6939;SDS011;3509;48.510;9.076;2022-07-18T02:26:53;4.93;;;4.53;;
6939;SDS011;3509;48.510;9.076;2022-07-18T02:29:19;4.72;;;4.32;;
6939;SDS011;3509;48.510;9.076;2022-07-18T02:31:45;5.68;;;4.80;;
6939;SDS011;3509;48.510;9.076;2022-07-18T02:34:10;5.40;;;4.90;;
6939;SDS011;3509;48.510;9.076;2022-07-18T02:36:39;7.03;;;5.15;;
6939;SDS011;3509;48.510;9.076;2022-07-18T02:39:06;8.27;;;4.95;;
6939;SDS011;3509;48.510;9.076;2022-07-18T02:41:32;8.20;;;4.85;;
6939;SDS011;3509;48.510;9.076;2022-07-18T02:43:58;4.72;;;4.22;;
6939;SDS011;3509;48.510;9.076;2022-07-18T02:46:24;6.60;;;4.72;;
6939;SDS011;3509;48.510;9.076;2022-07-18T02:48:50;7.30;;;5.20;;
6939;SDS011;3509;48.510;9.076;2022-07-18T02:51:19;6.53;;;5.38;;
6939;SDS011;3509;48.510;9.076;2022-07-18T02:53:44;5.88;;;5.18;;
6939;SDS011;3509;48.510;9.076;2022-07-18T02:56:10;6.68;;;5.10;;
6939;SDS011;3509;48.510;9.076;2022-07-18T02:58:36;5.50;;;5.00;;
6939;SDS011;3509;48.510;9.076;2022-07-18T03:01:02;5.70;;;5.20;;
6939;SDS011;3509;48.510;9.076;2022-07-18T03:03:27;7.45;;;5.60;;
6939;SDS011;3509;48.510;9.076;2022-07-18T03:05:53;6.07;;;5.03;;
6939;SDS011;3509;48.510;9.076;2022-07-18T03:08:19;5.35;;;4.85;;
6939;SDS011;3509;48.510;9.076;2022-07-18T03:10:45;6.80;;;5.53;;
6939;SDS011;3509;48.510;9.076;2022-07-18T03:13:10;6.13;;;5.32;;
6939;SDS011;3509;48.510;9.076;2022-07-18T03:15:38;6.63;;;5.20;;
6939;SDS011;3509;48.510;9.076;2022-07-18T03:18:04;7.65;;;5.80;;
6939;SDS011;3509;48.510;9.076;2022-07-18T03:20:30;5.70;;;5.20;;
6939;SDS011;3509;48.510;9.076;2022-07-18T03:22:56;6.50;;;5.55;;
6939;SDS011;3509;48.510;9.076;2022-07-18T03:25:22;5.93;;;4.72;;
6939;SDS011;3509;48.510;9.076;2022-07-18T03:27:47;6.07;;;5.40;;
6939;SDS011;3509;48.510;9.076;2022-07-18T03:30:13;6.43;;;5.25;;
6939;SDS011;3509;48.510;9.076;2022-07-18T03:32:39;6.43;;;5.30;;
6939;SDS011;3509;48.510;9.076;2022-07-18T03:35:05;7.68;;;5.20;;
6939;SDS011;3509;48.510;9.076;2022-07-18T03:37:31;7.28;;;5.55;;
6939;SDS011;3509;48.510;9.076;2022-07-18T03:39:57;5.95;;;5.40;;
6939;SDS011;3509;48.510;9.076;2022-07-18T03:42:23;7.90;;;5.82;;
6939;SDS011;3509;48.510;9.076;2022-07-18T03:44:48;5.80;;;5.30;;
6939;SDS011;3509;48.510;9.076;2022-07-18T03:47:14;7.78;;;6.13;;
6939;SDS011;3509;48.510;9.076;2022-07-18T03:49:40;6.15;;;5.55;;
6939;SDS011;3509;48.510;9.076;2022-07-18T03:52:05;11.50;;;6.15;;
6939;SDS011;3509;48.510;9.076;2022-07-18T03:54:31;9.50;;;5.45;;
6939;SDS011;3509;48.510;9.076;2022-07-18T03:56:57;6.82;;;5.78;;
6939;SDS011;3509;48.510;9.076;2022-07-18T03:59:22;6.18;;;5.57;;
6939;SDS011;3509;48.510;9.076;2022-07-18T04:01:48;6.25;;;5.65;;
6939;SDS011;3509;48.510;9.076;2022-07-18T04:04:14;7.60;;;5.53;;
6939;SDS011;3509;48.510;9.076;2022-07-18T04:06:39;6.95;;;5.72;;
6939;SDS011;3509;48.510;9.076;2022-07-18T04:09:05;6.25;;;5.68;;
6939;SDS011;3509;48.510;9.076;2022-07-18T04:11:31;6.53;;;5.82;;
6939;SDS011;3509;48.510;9.076;2022-07-18T04:13:56;6.90;;;6.20;;
6939;SDS011;3509;48.510;9.076;2022-07-18T04:16:22;6.22;;;5.63;;
6939;SDS011;3509;48.510;9.076;2022-07-18T04:18:48;7.45;;;5.68;;
6939;SDS011;3509;48.510;9.076;2022-07-18T04:21:14;6.10;;;5.60;;
6939;SDS011;3509;48.510;9.076;2022-07-18T04:23:41;8.60;;;6.00;;
6939;SDS011;3509;48.510;9.076;2022-07-18T04:26:07;6.53;;;5.40;;
6939;SDS011;3509;48.510;9.076;2022-07-18T04:28:34;6.30;;;5.65;;
6939;SDS011;3509;48.510;9.076;2022-07-18T04:31:00;5.70;;;5.10;;
6939;SDS011;3509;48.510;9.076;2022-07-18T04:33:26;6.85;;;5.07;;
6939;SDS011;3509;48.510;9.076;2022-07-18T04:35:51;7.43;;;4.93;;
6939;SDS011;3509;48.510;9.076;2022-07-18T04:38:17;5.88;;;4.60;;
6939;SDS011;3509;48.510;9.076;2022-07-18T04:40:43;5.97;;;5.38;;
6939;SDS011;3509;48.510;9.076;2022-07-18T04:43:08;5.30;;;4.80;;
6939;SDS011;3509;48.510;9.076;2022-07-18T04:45:35;5.20;;;4.68;;
6939;SDS011;3509;48.510;9.076;2022-07-18T04:48:01;5.50;;;4.97;;
6939;SDS011;3509;48.510;9.076;2022-07-18T04:50:30;5.28;;;4.78;;
6939;SDS011;3509;48.510;9.076;2022-07-18T04:52:57;7.88;;;5.05;;
6939;SDS011;3509;48.510;9.076;2022-07-18T04:55:23;5.30;;;4.80;;
6939;SDS011;3509;48.510;9.076;2022-07-18T04:57:50;4.88;;;4.38;;
6939;SDS011;3509;48.510;9.076;2022-07-18T05:00:18;6.05;;;4.90;;
6939;SDS011;3509;48.510;9.076;2022-07-18T05:02:46;5.30;;;4.80;;
6939;SDS011;3509;48.510;9.076;2022-07-18T05:05:14;5.55;;;5.00;;
6939;SDS011;3509;48.510;9.076;2022-07-18T05:07:41;7.25;;;4.85;;
6939;SDS011;3509;48.510;9.076;2022-07-18T05:10:09;7.43;;;5.07;;
6939;SDS011;3509;48.510;9.076;2022-07-18T05:12:37;5.15;;;4.50;;
6939;SDS011;3509;48.510;9.076;2022-07-18T05:15:04;6.20;;;4.60;;
6939;SDS011;3509;48.510;9.076;2022-07-18T05:17:31;4.63;;;4.22;;
6939;SDS011;3509;48.510;9.076;2022-07-18T05:19:57;5.05;;;4.43;;
6939;SDS011;3509;48.510;9.076;2022-07-18T05:22:23;6.18;;;3.90;;
6939;SDS011;3509;48.510;9.076;2022-07-18T05:24:49;5.53;;;4.10;;
6939;SDS011;3509;48.510;9.076;2022-07-18T05:27:15;6.28;;;3.88;;
6939;SDS011;3509;48.510;9.076;2022-07-18T05:29:40;7.30;;;3.38;;
6939;SDS011;3509;48.510;9.076;2022-07-18T05:32:06;3.75;;;3.40;;
6939;SDS011;3509;48.510;9.076;2022-07-18T05:34:32;4.50;;;3.33;;
6939;SDS011;3509;48.510;9.076;2022-07-18T05:36:58;6.70;;;3.25;;
6939;SDS011;3509;48.510;9.076;2022-07-18T05:39:24;4.93;;;3.25;;
6939;SDS011;3509;48.510;9.076;2022-07-18T05:41:50;6.35;;;3.65;;
6939;SDS011;3509;48.510;9.076;2022-07-18T05:44:16;3.35;;;2.97;;
6939;SDS011;3509;48.510;9.076;2022-07-18T05:46:44;7.50;;;3.60;;
6939;SDS011;3509;48.510;9.076;2022-07-18T05:49:10;6.78;;;3.20;;
6939;SDS011;3509;48.510;9.076;2022-07-18T05:51:36;8.23;;;3.33;;
6939;SDS011;3509;48.510;9.076;2022-07-18T05:54:02;8.73;;;3.60;;
6939;SDS011;3509;48.510;9.076;2022-07-18T05:56:27;10.75;;;3.60;;
6939;SDS011;3509;48.510;9.076;2022-07-18T05:58:53;4.68;;;3.55;;
6939;SDS011;3509;48.510;9.076;2022-07-18T06:01:19;5.97;;;3.00;;
6939;SDS011;3509;48.510;9.076;2022-07-18T06:03:45;3.33;;;3.00;;
6939;SDS011;3509;48.510;9.076;2022-07-18T06:06:12;5.90;;;3.20;;
6939;SDS011;3509;48.510;9.076;2022-07-18T06:08:39;7.05;;;3.40;;
6939;SDS011;3509;48.510;9.076;2022-07-18T06:11:05;9.80;;;3.50;;
6939;SDS011;3509;48.510;9.076;2022-07-18T06:13:33;7.05;;;3.00;;
6939;SDS011;3509;48.510;9.076;2022-07-18T06:15:59;4.97;;;3.00;;
6939;SDS011;3509;48.510;9.076;2022-07-18T06:18:25;3.95;;;3.13;;
6939;SDS011;3509;48.510;9.076;2022-07-18T06:20:51;3.97;;;3.20;;
6939;SDS011;3509;48.510;9.076;2022-07-18T06:23:19;7.47;;;3.05;;
6939;SDS011;3509;48.510;9.076;2022-07-18T06:25:45;5.95;;;3.03;;
6939;SDS011;3509;48.510;9.076;2022-07-18T06:28:11;7.63;;;3.60;;
6939;SDS011;3509;48.510;9.076;2022-07-18T06:30:36;4.47;;;3.08;;
6939;SDS011;3509;48.510;9.076;2022-07-18T06:33:02;5.22;;;3.15;;
6939;SDS011;3509;48.510;9.076;2022-07-18T06:35:30;4.13;;;2.95;;
6939;SDS011;3509;48.510;9.076;2022-07-18T06:37:56;10.57;;;3.20;;
6939;SDS011;3509;48.510;9.076;2022-07-18T06:40:22;6.45;;;3.00;;
6939;SDS011;3509;48.510;9.076;2022-07-18T06:42:50;30.27;;;5.15;;
6939;SDS011;3509;48.510;9.076;2022-07-18T06:45:18;37.75;;;4.55;;
6939;SDS011;3509;48.510;9.076;2022-07-18T06:47:44;13.38;;;3.40;;
6939;SDS011;3509;48.510;9.076;2022-07-18T06:50:12;6.07;;;3.13;;
6939;SDS011;3509;48.510;9.076;2022-07-18T06:52:39;31.40;;;4.55;;
6939;SDS011;3509;48.510;9.076;2022-07-18T06:55:06;13.15;;;3.20;;
6939;SDS011;3509;48.510;9.076;2022-07-18T06:57:32;13.23;;;3.80;;
6939;SDS011;3509;48.510;9.076;2022-07-18T06:59:58;7.75;;;2.80;;
6939;SDS011;3509;48.510;9.076;2022-07-18T07:02:23;7.18;;;3.00;;
6939;SDS011;3509;48.510;9.076;2022-07-18T07:04:49;6.00;;;2.90;;
6939;SDS011;3509;48.510;9.076;2022-07-18T07:07:15;14.35;;;3.35;;
6939;SDS011;3509;48.510;9.076;2022-07-18T07:09:40;6.32;;;2.83;;
6939;SDS011;3509;48.510;9.076;2022-07-18T07:12:06;5.88;;;2.58;;
6939;SDS011;3509;48.510;9.076;2022-07-18T07:14:32;7.03;;;2.63;;
6939;SDS011;3509;48.510;9.076;2022-07-18T07:16:57;2.70;;;2.35;;
6939;SDS011;3509;48.510;9.076;2022-07-18T07:19:23;7.25;;;2.50;;
6939;SDS011;3509;48.510;9.076;2022-07-18T07:21:49;11.15;;;3.22;;
6939;SDS011;3509;48.510;9.076;2022-07-18T07:24:15;7.63;;;2.95;;
6939;SDS011;3509;48.510;9.076;2022-07-18T07:26:41;3.72;;;2.75;;
6939;SDS011;3509;48.510;9.076;2022-07-18T07:29:06;4.35;;;2.53;;
6939;SDS011;3509;48.510;9.076;2022-07-18T07:31:32;75.05;;;7.38;;
6939;SDS011;3509;48.510;9.076;2022-07-18T07:33:57;4.80;;;2.65;;
6939;SDS011;3509;48.510;9.076;2022-07-18T07:36:23;2.70;;;2.47;;
6939;SDS011;3509;48.510;9.076;2022-07-18T07:38:49;4.35;;;2.75;;
6939;SDS011;3509;48.510;9.076;2022-07-18T07:41:14;5.68;;;2.90;;
6939;SDS011;3509;48.510;9.076;2022-07-18T07:43:40;3.38;;;2.30;;
6939;SDS011;3509;48.510;9.076;2022-07-18T07:46:06;3.60;;;2.60;;
6939;SDS011;3509;48.510;9.076;2022-07-18T07:48:32;3.97;;;2.60;;
6939;SDS011;3509;48.510;9.076;2022-07-18T07:50:57;22.30;;;3.97;;
6939;SDS011;3509;48.510;9.076;2022-07-18T07:53:23;3.72;;;2.40;;
6939;SDS011;3509;48.510;9.076;2022-07-18T07:55:49;4.70;;;2.63;;
6939;SDS011;3509;48.510;9.076;2022-07-18T07:58:15;8.00;;;2.65;;
6939;SDS011;3509;48.510;9.076;2022-07-18T08:00:40;4.05;;;2.40;;
6939;SDS011;3509;48.510;9.076;2022-07-18T08:03:07;4.28;;;2.33;;
6939;SDS011;3509;48.510;9.076;2022-07-18T08:05:35;4.97;;;2.30;;
6939;SDS011;3509;48.510;9.076;2022-07-18T08:08:04;2.83;;;2.40;;
6939;SDS011;3509;48.510;9.076;2022-07-18T08:10:31;28.17;;;3.83;;
6939;SDS011;3509;48.510;9.076;2022-07-18T08:12:57;28.95;;;3.90;;
6939;SDS011;3509;48.510;9.076;2022-07-18T08:15:24;6.40;;;2.70;;
6939;SDS011;3509;48.510;9.076;2022-07-18T08:17:50;4.95;;;2.47;;
6939;SDS011;3509;48.510;9.076;2022-07-18T08:20:15;16.58;;;3.17;;
6939;SDS011;3509;48.510;9.076;2022-07-18T08:25:31;2.53;;;2.20;;
6939;SDS011;3509;48.510;9.076;2022-07-18T08:27:59;3.17;;;2.35;;
6939;SDS011;3509;48.510;9.076;2022-07-18T08:30:26;3.38;;;2.03;;
6939;SDS011;3509;48.510;9.076;2022-07-18T08:32:52;3.55;;;2.38;;
6939;SDS011;3509;48.510;9.076;2022-07-18T08:35:18;5.80;;;2.20;;
6939;SDS011;3509;48.510;9.076;2022-07-18T08:37:44;5.60;;;2.58;;
6939;SDS011;3509;48.510;9.076;2022-07-18T08:40:10;3.85;;;2.35;;
6939;SDS011;3509;48.510;9.076;2022-07-18T08:42:36;5.18;;;2.50;;
6939;SDS011;3509;48.510;9.076;2022-07-18T08:45:02;5.47;;;2.40;;
6939;SDS011;3509;48.510;9.076;2022-07-18T08:47:29;3.30;;;2.60;;
6939;SDS011;3509;48.510;9.076;2022-07-18T08:49:55;14.45;;;3.00;;
6939;SDS011;3509;48.510;9.076;2022-07-18T08:52:21;9.45;;;3.00;;
6939;SDS011;3509;48.510;9.076;2022-07-18T08:54:48;5.32;;;2.42;;
6939;SDS011;3509;48.510;9.076;2022-07-18T08:57:14;12.95;;;3.28;;
6939;SDS011;3509;48.510;9.076;2022-07-18T08:59:43;3.97;;;2.67;;
6939;SDS011;3509;48.510;9.076;2022-07-18T09:02:09;4.43;;;2.72;;
6939;SDS011;3509;48.510;9.076;2022-07-18T09:04:36;6.95;;;2.70;;
6939;SDS011;3509;48.510;9.076;2022-07-18T09:07:06;5.88;;;2.72;;
6939;SDS011;3509;48.510;9.076;2022-07-18T09:09:38;4.53;;;2.45;;
6939;SDS011;3509;48.510;9.076;2022-07-18T09:12:07;6.28;;;2.40;;
6939;SDS011;3509;48.510;9.076;2022-07-18T09:19:40;6.30;;;2.83;;
6939;SDS011;3509;48.510;9.076;2022-07-18T09:32:51;4.10;;;2.53;;
6939;SDS011;3509;48.510;9.076;2022-07-18T09:35:20;10.05;;;2.58;;
6939;SDS011;3509;48.510;9.076;2022-07-18T09:37:54;6.15;;;2.30;;
6939;SDS011;3509;48.510;9.076;2022-07-18T09:40:21;6.20;;;2.70;;
6939;SDS011;3509;48.510;9.076;2022-07-18T09:42:59;5.47;;;2.40;;
6939;SDS011;3509;48.510;9.076;2022-07-18T09:48:00;4.40;;;2.10;;
6939;SDS011;3509;48.510;9.076;2022-07-18T09:53:13;2.20;;;1.90;;
6939;SDS011;3509;48.510;9.076;2022-07-18T09:55:55;3.75;;;2.20;;
6939;SDS011;3509;48.510;9.076;2022-07-18T09:58:24;3.35;;;2.10;;
6939;SDS011;3509;48.510;9.076;2022-07-18T10:01:00;5.43;;;1.90;;
6939;SDS011;3509;48.510;9.076;2022-07-18T10:03:27;3.38;;;2.00;;
6939;SDS011;3509;48.510;9.076;2022-07-18T10:05:53;4.28;;;2.20;;
6939;SDS011;3509;48.510;9.076;2022-07-18T10:08:21;18.63;;;2.80;;
6939;SDS011;3509;48.510;9.076;2022-07-18T10:10:49;2.42;;;1.92;;
6939;SDS011;3509;48.510;9.076;2022-07-18T10:13:17;2.45;;;2.10;;
6939;SDS011;3509;48.510;9.076;2022-07-18T10:15:45;2.08;;;1.88;;
6939;SDS011;3509;48.510;9.076;2022-07-18T10:18:13;2.13;;;1.92;;
6939;SDS011;3509;48.510;9.076;2022-07-18T10:23:26;2.50;;;2.30;;
6939;SDS011;3509;48.510;9.076;2022-07-18T10:33:47;2.33;;;2.10;;
6939;SDS011;3509;48.510;9.076;2022-07-18T10:36:23;68.18;;;5.95;;
6939;SDS011;3509;48.510;9.076;2022-07-18T10:57:28;3.42;;;2.30;;
6939;SDS011;3509;48.510;9.076;2022-07-18T11:00:03;2.55;;;2.05;;
6939;SDS011;3509;48.510;9.076;2022-07-18T11:02:36;3.22;;;2.00;;
6939;SDS011;3509;48.510;9.076;2022-07-18T11:08:35;5.93;;;2.30;;
6939;SDS011;3509;48.510;9.076;2022-07-18T11:24:01;3.50;;;2.00;;
6939;SDS011;3509;48.510;9.076;2022-07-18T11:26:29;2.88;;;2.05;;
6939;SDS011;3509;48.510;9.076;2022-07-18T11:28:56;2.83;;;2.10;;
6939;SDS011;3509;48.510;9.076;2022-07-18T11:31:42;3.97;;;1.83;;
6939;SDS011;3509;48.510;9.076;2022-07-18T11:34:12;3.97;;;1.90;;
6939;SDS011;3509;48.510;9.076;2022-07-18T11:36:38;6.78;;;2.10;;
6939;SDS011;3509;48.510;9.076;2022-07-18T11:39:05;3.03;;;2.05;;
6939;SDS011;3509;48.510;9.076;2022-07-18T11:41:31;3.63;;;2.60;;
6939;SDS011;3509;48.510;9.076;2022-07-18T11:43:57;4.63;;;2.17;;
6939;SDS011;3509;48.510;9.076;2022-07-18T11:46:24;8.15;;;2.33;;
6939;SDS011;3509;48.510;9.076;2022-07-18T11:48:58;5.60;;;2.40;;
6939;SDS011;3509;48.510;9.076;2022-07-18T11:51:25;3.95;;;2.10;;
6939;SDS011;3509;48.510;9.076;2022-07-18T11:54:04;2.22;;;2.08;;
6939;SDS011;3509;48.510;9.076;2022-07-18T11:56:30;3.30;;;2.20;;
6939;SDS011;3509;48.510;9.076;2022-07-18T11:58:55;3.10;;;2.17;;
6939;SDS011;3509;48.510;9.076;2022-07-18T12:01:23;2.80;;;2.00;;
6939;SDS011;3509;48.510;9.076;2022-07-18T12:03:58;2.00;;;1.83;;
6939;SDS011;3509;48.510;9.076;2022-07-18T12:06:24;3.97;;;2.28;;
6939;SDS011;3509;48.510;9.076;2022-07-18T12:08:58;6.68;;;2.20;;
6939;SDS011;3509;48.510;9.076;2022-07-18T12:11:37;10.48;;;2.30;;
6939;SDS011;3509;48.510;9.076;2022-07-18T12:16:42;16.38;;;2.72;;
6939;SDS011;3509;48.510;9.076;2022-07-18T12:19:09;2.20;;;1.90;;
6939;SDS011;3509;48.510;9.076;2022-07-18T12:21:45;4.57;;;2.00;;
6939;SDS011;3509;48.510;9.076;2022-07-18T12:32:22;2.85;;;2.20;;
6939;SDS011;3509;48.510;9.076;2022-07-18T12:37:29;3.92;;;2.33;;
6939;SDS011;3509;48.510;9.076;2022-07-18T12:39:58;8.70;;;2.40;;
6939;SDS011;3509;48.510;9.076;2022-07-18T12:42:33;7.03;;;2.08;;
6939;SDS011;3509;48.510;9.076;2022-07-18T12:45:03;6.47;;;2.30;;
6939;SDS011;3509;48.510;9.076;2022-07-18T12:47:31;3.00;;;1.95;;
6939;SDS011;3509;48.510;9.076;2022-07-18T12:49:57;1.92;;;1.70;;
6939;SDS011;3509;48.510;9.076;2022-07-18T12:52:23;4.10;;;2.15;;
6939;SDS011;3509;48.510;9.076;2022-07-18T12:54:49;3.17;;;1.95;;
6939;SDS011;3509;48.510;9.076;2022-07-18T12:57:15;2.17;;;1.98;;
6939;SDS011;3509;48.510;9.076;2022-07-18T12:59:42;4.13;;;2.03;;
6939;SDS011;3509;48.510;9.076;2022-07-18T13:02:08;2.63;;;2.10;;
6939;SDS011;3509;48.510;9.076;2022-07-18T13:04:35;3.80;;;2.17;;
6939;SDS011;3509;48.510;9.076;2022-07-18T13:07:00;4.45;;;2.20;;
6939;SDS011;3509;48.510;9.076;2022-07-18T13:09:26;11.57;;;2.80;;
6939;SDS011;3509;48.510;9.076;2022-07-18T13:11:52;3.38;;;2.20;;
6939;SDS011;3509;48.510;9.076;2022-07-18T13:14:17;4.00;;;2.00;;
6939;SDS011;3509;48.510;9.076;2022-07-18T13:16:44;3.03;;;1.98;;
6939;SDS011;3509;48.510;9.076;2022-07-18T13:19:12;4.82;;;2.25;;
6939;SDS011;3509;48.510;9.076;2022-07-18T13:21:41;2.97;;;1.88;;
6939;SDS011;3509;48.510;9.076;2022-07-18T13:24:07;11.63;;;2.80;;
6939;SDS011;3509;48.510;9.076;2022-07-18T13:26:33;2.97;;;2.08;;
6939;SDS011;3509;48.510;9.076;2022-07-18T13:28:59;3.25;;;1.98;;
6939;SDS011;3509;48.510;9.076;2022-07-18T13:31:25;6.80;;;2.10;;
6939;SDS011;3509;48.510;9.076;2022-07-18T13:33:51;2.60;;;2.00;;
6939;SDS011;3509;48.510;9.076;2022-07-18T13:36:17;9.40;;;2.30;;
6939;SDS011;3509;48.510;9.076;2022-07-18T13:38:43;6.10;;;2.15;;
6939;SDS011;3509;48.510;9.076;2022-07-18T13:41:10;3.20;;;1.70;;
6939;SDS011;3509;48.510;9.076;2022-07-18T13:43:36;2.00;;;1.80;;
6939;SDS011;3509;48.510;9.076;2022-07-18T13:46:07;3.63;;;1.92;;
6939;SDS011;3509;48.510;9.076;2022-07-18T13:48:34;3.25;;;2.00;;
6939;SDS011;3509;48.510;9.076;2022-07-18T13:51:00;2.00;;;1.80;;
6939;SDS011;3509;48.510;9.076;2022-07-18T13:53:26;3.75;;;2.00;;
6939;SDS011;3509;48.510;9.076;2022-07-18T13:55:52;2.58;;;2.00;;
6939;SDS011;3509;48.510;9.076;2022-07-18T13:58:18;3.30;;;1.83;;
6939;SDS011;3509;48.510;9.076;2022-07-18T14:00:44;3.85;;;1.60;;
6939;SDS011;3509;48.510;9.076;2022-07-18T14:03:09;3.10;;;1.85;;
6939;SDS011;3509;48.510;9.076;2022-07-18T14:05:35;5.85;;;2.15;;
6939;SDS011;3509;48.510;9.076;2022-07-18T14:08:02;2.47;;;2.03;;
6939;SDS011;3509;48.510;9.076;2022-07-18T14:10:28;5.47;;;2.33;;
6939;SDS011;3509;48.510;9.076;2022-07-18T14:12:54;3.97;;;2.00;;
6939;SDS011;3509;48.510;9.076;2022-07-18T14:15:19;2.08;;;1.75;;
6939;SDS011;3509;48.510;9.076;2022-07-18T14:17:45;3.40;;;1.88;;
6939;SDS011;3509;48.510;9.076;2022-07-18T14:20:11;2.30;;;1.88;;
6939;SDS011;3509;48.510;9.076;2022-07-18T14:22:38;3.53;;;2.00;;
6939;SDS011;3509;48.510;9.076;2022-07-18T14:25:05;16.60;;;2.72;;
6939;SDS011;3509;48.510;9.076;2022-07-18T14:27:32;8.63;;;2.58;;
6939;SDS011;3509;48.510;9.076;2022-07-18T14:29:58;9.40;;;2.53;;
6939;SDS011;3509;48.510;9.076;2022-07-18T14:32:25;4.53;;;2.30;;
6939;SDS011;3509;48.510;9.076;2022-07-18T14:34:51;2.95;;;2.00;;
6939;SDS011;3509;48.510;9.076;2022-07-18T14:37:16;3.28;;;1.77;;
6939;SDS011;3509;48.510;9.076;2022-07-18T14:39:42;2.83;;;1.90;;
6939;SDS011;3509;48.510;9.076;2022-07-18T14:42:08;2.25;;;1.88;;
6939;SDS011;3509;48.510;9.076;2022-07-18T14:44:34;7.25;;;2.03;;
6939;SDS011;3509;48.510;9.076;2022-07-18T14:47:00;2.10;;;1.90;;
6939;SDS011;3509;48.510;9.076;2022-07-18T14:49:25;5.78;;;2.08;;
6939;SDS011;3509;48.510;9.076;2022-07-18T14:51:51;3.53;;;1.95;;
6939;SDS011;3509;48.510;9.076;2022-07-18T14:54:17;19.02;;;2.85;;
6939;SDS011;3509;48.510;9.076;2022-07-18T14:56:42;7.43;;;2.20;;
6939;SDS011;3509;48.510;9.076;2022-07-18T14:59:08;3.72;;;2.03;;
6939;SDS011;3509;48.510;9.076;2022-07-18T15:01:34;1.77;;;1.67;;
6939;SDS011;3509;48.510;9.076;2022-07-18T15:03:59;4.18;;;2.08;;
6939;SDS011;3509;48.510;9.076;2022-07-18T15:06:25;6.80;;;2.30;;
6939;SDS011;3509;48.510;9.076;2022-07-18T15:08:51;7.70;;;2.00;;
6939;SDS011;3509;48.510;9.076;2022-07-18T15:11:17;3.05;;;1.80;;
6939;SDS011;3509;48.510;9.076;2022-07-18T15:13:46;2.53;;;2.33;;
6939;SDS011;3509;48.510;9.076;2022-07-18T15:16:11;4.80;;;2.30;;
6939;SDS011;3509;48.510;9.076;2022-07-18T15:18:37;29.38;;;4.57;;
6939;SDS011;3509;48.510;9.076;2022-07-18T15:21:03;8.80;;;2.55;;
6939;SDS011;3509;48.510;9.076;2022-07-18T15:23:29;2.95;;;2.15;;
6939;SDS011;3509;48.510;9.076;2022-07-18T15:25:54;4.22;;;1.80;;
6939;SDS011;3509;48.510;9.076;2022-07-18T15:28:20;8.50;;;2.75;;
6939;SDS011;3509;48.510;9.076;2022-07-18T15:30:47;2.42;;;2.00;;
6939;SDS011;3509;48.510;9.076;2022-07-18T15:33:14;3.22;;;2.30;;
6939;SDS011;3509;48.510;9.076;2022-07-18T15:35:40;3.33;;;2.10;;
6939;SDS011;3509;48.510;9.076;2022-07-18T15:38:06;2.88;;;1.98;;
6939;SDS011;3509;48.510;9.076;2022-07-18T15:40:32;4.20;;;2.40;;
6939;SDS011;3509;48.510;9.076;2022-07-18T15:42:58;2.67;;;2.20;;
6939;SDS011;3509;48.510;9.076;2022-07-18T15:45:23;4.80;;;2.10;;
6939;SDS011;3509;48.510;9.076;2022-07-18T15:47:49;5.20;;;2.10;;
6939;SDS011;3509;48.510;9.076;2022-07-18T15:50:15;2.60;;;1.92;;
6939;SDS011;3509;48.510;9.076;2022-07-18T15:52:40;3.25;;;2.20;;
6939;SDS011;3509;48.510;9.076;2022-07-18T15:55:06;8.23;;;2.20;;
6939;SDS011;3509;48.510;9.076;2022-07-18T15:57:32;2.00;;;1.90;;
6939;SDS011;3509;48.510;9.076;2022-07-18T15:59:58;7.30;;;2.10;;
6939;SDS011;3509;48.510;9.076;2022-07-18T16:02:24;2.88;;;1.88;;
6939;SDS011;3509;48.510;9.076;2022-07-18T16:04:49;2.13;;;1.90;;
6939;SDS011;3509;48.510;9.076;2022-07-18T16:07:15;4.40;;;2.10;;
6939;SDS011;3509;48.510;9.076;2022-07-18T16:09:41;3.05;;;1.75;;
6939;SDS011;3509;48.510;9.076;2022-07-18T16:12:06;2.70;;;1.75;;
6939;SDS011;3509;48.510;9.076;2022-07-18T16:14:32;3.33;;;2.05;;
6939;SDS011;3509;48.510;9.076;2022-07-18T16:16:58;2.63;;;2.17;;
6939;SDS011;3509;48.510;9.076;2022-07-18T16:19:30;4.80;;;2.20;;
6939;SDS011;3509;48.510;9.076;2022-07-18T16:21:56;2.40;;;2.20;;
6939;SDS011;3509;48.510;9.076;2022-07-18T16:24:23;2.35;;;1.92;;
6939;SDS011;3509;48.510;9.076;2022-07-18T16:26:48;2.95;;;2.10;;
6939;SDS011;3509;48.510;9.076;2022-07-18T16:29:14;5.65;;;2.28;;
6939;SDS011;3509;48.510;9.076;2022-07-18T16:31:40;4.00;;;2.38;;
6939;SDS011;3509;48.510;9.076;2022-07-18T16:34:06;6.60;;;2.08;;
6939;SDS011;3509;48.510;9.076;2022-07-18T16:36:31;5.32;;;2.03;;